createdAt,value
2017-11-21T00:00:27.069Z,99248.25
2017-11-21T00:03:02.197Z,99246.48
2017-11-21T00:05:36.728Z,99244.99
2017-11-21T00:08:11.133Z,99241.84
2017-11-21T00:10:45.503Z,99238.19
2017-11-21T00:13:20.008Z,99230.81
2017-11-21T00:15:54.381Z,99233.38
2017-11-21T00:18:28.938Z,99235.97
2017-11-21T00:21:03.307Z,99234.12
2017-11-21T00:23:37.811Z,99234.75
2017-11-21T00:26:12.175Z,99234.08
2017-11-21T00:28:46.730Z,99227.46
2017-11-21T00:31:21.096Z,99227.02
2017-11-21T00:33:55.639Z,99215.96
2017-11-21T00:36:30.057Z,99226.61
2017-11-21T00:39:04.760Z,99222.55
2017-11-21T00:41:39.135Z,99185.87
2017-11-21T00:44:13.730Z,99206.06
2017-11-21T00:46:48.131Z,99209.77
2017-11-21T00:49:22.641Z,99208.91
2017-11-21T00:51:57.037Z,99210.72
2017-11-21T00:54:31.399Z,99208.87
2017-11-21T00:57:05.791Z,99212.80
2017-11-21T00:59:40.298Z,99205.55
2017-11-21T01:02:14.345Z,99204.70
2017-11-21T01:04:49.594Z,99203.95
2017-11-21T01:07:24.086Z,99200.81
2017-11-21T01:09:58.696Z,99194.48
2017-11-21T01:12:33.503Z,99195.26
2017-11-21T01:15:11.428Z,99190.64
2017-11-21T01:17:45.876Z,99181.03
2017-11-21T01:20:20.718Z,99171.53
2017-11-21T01:22:55.123Z,99170.18
2017-11-21T01:25:29.517Z,99164.52
2017-11-21T01:28:04.015Z,99162.30
2017-11-21T01:30:38.399Z,99164.28
2017-11-21T01:33:13.035Z,99158.41
2017-11-21T01:35:47.383Z,99157.62
2017-11-21T01:38:21.869Z,99152.55
2017-11-21T01:40:56.284Z,99156.72
2017-11-21T01:43:30.818Z,99132.89
2017-11-21T01:46:05.310Z,99144.91
2017-11-21T01:48:39.688Z,99149.82
2017-11-21T01:51:14.422Z,99149.69
2017-11-21T01:53:48.804Z,99143.27
2017-11-21T01:56:23.210Z,99139.73
2017-11-21T01:58:57.706Z,99139.98
2017-11-21T02:01:32.490Z,99132.72
2017-11-21T02:04:07.240Z,99137.27
2017-11-21T02:06:41.595Z,99129.12
2017-11-21T02:09:16.131Z,99130.58
2017-11-21T02:11:50.484Z,99133.03
2017-11-21T02:14:24.964Z,99131.99
2017-11-21T02:16:59.376Z,99126.81
2017-11-21T02:19:33.820Z,99121.68
2017-11-21T02:22:07.965Z,99124.16
2017-11-21T02:24:42.149Z,99127.78
2017-11-21T02:27:16.618Z,99126.59
2017-11-21T02:29:50.778Z,99130.78
2017-11-21T02:32:25.189Z,99133.88
2017-11-21T02:34:59.663Z,99129.04
2017-11-21T02:37:33.776Z,99122.79
2017-11-21T02:40:15.423Z,99124.22
2017-11-21T02:42:49.668Z,99107.27
2017-11-21T02:45:23.755Z,99112.88
2017-11-21T02:47:58.338Z,99100.46
2017-11-21T02:50:32.488Z,99095.59
2017-11-21T02:53:06.699Z,99098.28
2017-11-21T02:55:41.059Z,99102.28
2017-11-21T02:58:15.038Z,99105.79
2017-11-21T03:00:49.590Z,99096.22
2017-11-21T03:03:24.149Z,99100.02
2017-11-21T03:05:58.587Z,99100.20
2017-11-21T03:08:32.970Z,99096.92
2017-11-21T03:11:07.080Z,99100.46
2017-11-21T03:13:41.474Z,99105.86
2017-11-21T03:16:15.619Z,99100.87
2017-11-21T03:18:51.015Z,99096.45
2017-11-21T03:21:36.677Z,99089.09
2017-11-21T03:24:22.355Z,99093.42
2017-11-21T03:30:10.375Z,99076.58
2017-11-21T03:32:45.134Z,99074.03
2017-11-21T03:35:19.508Z,99083.52
2017-11-21T03:37:53.666Z,99074.66
2017-11-21T03:40:28.046Z,99075.95
2017-11-21T03:43:02.503Z,99082.64
2017-11-21T03:45:36.923Z,99071.59
2017-11-21T03:48:11.349Z,99076.61
2017-11-21T03:50:45.728Z,99072.12
2017-11-21T03:53:20.251Z,99068.61
2017-11-21T03:55:54.612Z,99067.12
2017-11-21T03:58:29.091Z,99055.55
2017-11-21T04:01:03.186Z,99055.14
2017-11-21T04:03:37.775Z,99054.55
2017-11-21T04:06:12.165Z,99054.05
2017-11-21T04:08:46.764Z,99049.94
2017-11-21T04:11:21.227Z,99044.38
2017-11-21T04:13:55.732Z,99046.16
2017-11-21T04:16:30.170Z,99045.77
2017-11-21T04:19:04.685Z,99042.76
2017-11-21T04:21:39.233Z,99035.77
2017-11-21T04:24:13.689Z,99043.76
2017-11-21T04:26:48.383Z,99042.34
2017-11-21T04:29:22.919Z,99022.67
2017-11-21T04:31:57.279Z,99036.66
2017-11-21T04:34:31.990Z,99025.43
2017-11-21T04:37:06.564Z,99020.36
2017-11-21T04:39:41.502Z,99024.39
2017-11-21T04:42:16.294Z,99023.40
2017-11-21T04:44:50.798Z,99018.83
2017-11-21T04:47:25.165Z,99016.66
2017-11-21T04:49:59.630Z,99020.77
2017-11-21T04:52:33.995Z,99017.61
2017-11-21T04:55:11.123Z,99017.23
2017-11-21T04:57:45.470Z,99013.41
2017-11-21T05:00:20.315Z,99009.78
2017-11-21T05:02:54.912Z,99008.81
2017-11-21T05:05:29.016Z,99008.61
2017-11-21T05:08:03.636Z,99009.78
2017-11-21T05:10:38.238Z,99012.13
2017-11-21T05:13:12.725Z,99016.34
2017-11-21T05:15:47.184Z,99005.74
2017-11-21T05:18:21.651Z,99008.35
2017-11-21T05:20:55.791Z,98994.41
2017-11-21T05:23:30.267Z,98990.19
2017-11-21T05:26:04.699Z,98997.45
2017-11-21T05:28:39.295Z,98988.33
2017-11-21T05:31:13.763Z,98982.19
2017-11-21T05:33:48.301Z,98984.82
2017-11-21T05:36:22.679Z,98987.41
2017-11-21T05:38:57.183Z,98986.14
2017-11-21T05:41:32.062Z,98973.31
2017-11-21T05:44:06.343Z,98972.22
2017-11-21T05:46:40.750Z,98985.31
2017-11-21T05:49:15.300Z,98979.74
2017-11-21T05:51:49.602Z,98986.96
2017-11-21T05:54:24.194Z,98984.45
2017-11-21T05:56:58.620Z,98990.19
2017-11-21T05:59:33.174Z,98993.08
2017-11-21T06:02:07.629Z,98990.13
2017-11-21T06:04:42.188Z,98999.66
2017-11-21T06:07:16.554Z,98993.20
2017-11-21T06:09:51.140Z,98971.73
2017-11-21T06:12:25.611Z,98981.91
2017-11-21T06:15:00.095Z,98975.59
2017-11-21T06:17:34.535Z,98986.44
2017-11-21T06:20:16.208Z,98984.53
2017-11-21T06:22:50.807Z,98999.22
2017-11-21T06:25:25.199Z,98987.57
2017-11-21T06:27:59.689Z,98993.63
2017-11-21T06:30:34.617Z,98938.06
2017-11-21T06:33:09.131Z,98993.47
2017-11-21T06:35:43.591Z,99005.29
2017-11-21T06:38:18.228Z,99011.70
2017-11-21T06:40:52.935Z,99008.68
2017-11-21T06:43:27.377Z,99009.50
2017-11-21T06:46:01.839Z,99007.69
2017-11-21T06:48:36.206Z,98996.54
2017-11-21T06:51:10.608Z,99008.52
2017-11-21T06:53:45.599Z,99014.30
2017-11-21T06:56:20.039Z,99014.08
2017-11-21T06:58:54.434Z,99018.34
2017-11-21T07:01:28.836Z,99015.56
2017-11-21T07:04:03.389Z,99012.02
2017-11-21T07:06:37.811Z,99011.53
2017-11-21T07:09:12.199Z,99009.08
2017-11-21T07:11:46.619Z,99019.80
2017-11-21T07:14:21.217Z,99026.09
2017-11-21T07:16:55.670Z,99026.41
2017-11-21T07:19:30.171Z,99023.89
2017-11-21T07:22:04.552Z,99025.98
2017-11-21T07:24:39.109Z,99025.87
2017-11-21T07:27:13.578Z,99022.27
2017-11-21T07:29:48.060Z,98983.83
2017-11-21T07:32:22.416Z,99012.81
2017-11-21T07:34:56.904Z,99001.77
2017-11-21T07:37:31.788Z,99009.91
2017-11-21T07:40:11.531Z,99011.69
2017-11-21T07:42:45.901Z,99006.69
2017-11-21T07:45:20.371Z,99009.27
2017-11-21T07:47:54.765Z,99008.09
2017-11-21T07:50:29.202Z,99007.34
2017-11-21T07:53:03.786Z,98990.69
2017-11-21T07:55:38.173Z,99014.80
2017-11-21T07:58:12.712Z,99005.84
2017-11-21T08:00:47.228Z,99009.48
2017-11-21T08:03:21.817Z,99016.29
2017-11-21T08:05:56.221Z,99010.14
2017-11-21T08:08:31.486Z,99009.75
2017-11-21T08:11:05.628Z,99013.38
2017-11-21T08:13:39.811Z,99014.20
2017-11-21T08:16:14.576Z,99016.47
2017-11-21T08:18:49.119Z,99023.56
2017-11-21T08:21:23.562Z,99013.15
2017-11-21T08:23:58.147Z,99018.34
2017-11-21T08:26:32.639Z,99016.35
2017-11-21T08:29:07.190Z,99010.77
2017-11-21T08:31:41.557Z,99008.38
2017-11-21T08:34:16.071Z,99009.19
2017-11-21T08:36:50.439Z,98975.84
2017-11-21T08:39:25.003Z,99013.88
2017-11-21T08:41:59.436Z,99017.49
2017-11-21T08:44:34.708Z,99011.62
2017-11-21T08:47:09.140Z,98997.31
2017-11-21T08:49:43.737Z,99007.08
2017-11-21T08:52:18.740Z,99009.63
2017-11-21T08:54:53.177Z,99000.14
2017-11-21T08:57:27.551Z,99004.30
2017-11-21T09:00:02.250Z,99005.27
2017-11-21T09:02:36.622Z,99011.95
2017-11-21T09:05:12.843Z,98991.47
2017-11-21T09:07:47.376Z,99005.53
2017-11-21T09:10:22.276Z,99000.63
2017-11-21T09:12:57.007Z,99005.97
2017-11-21T09:15:31.347Z,98999.44
2017-11-21T09:18:05.900Z,99011.07
2017-11-21T09:20:40.364Z,99017.87
2017-11-21T09:23:14.883Z,99025.11
2017-11-21T09:25:49.219Z,99024.18
2017-11-21T09:28:23.571Z,99018.30
2017-11-21T09:30:58.322Z,99019.11
2017-11-21T09:33:32.740Z,99013.48
2017-11-21T09:36:07.192Z,99004.39
2017-11-21T09:38:41.666Z,99004.76
2017-11-21T09:41:16.109Z,99005.02
2017-11-21T09:43:50.664Z,99003.58
2017-11-21T09:46:25.190Z,99004.09
2017-11-21T09:48:59.750Z,98994.08
2017-11-21T09:51:34.183Z,99010.52
2017-11-21T09:54:08.676Z,99011.73
2017-11-21T09:56:43.017Z,98987.22
2017-11-21T09:59:17.590Z,99004.11
2017-11-21T10:01:52.295Z,98986.95
2017-11-21T10:04:26.705Z,98965.27
2017-11-21T10:07:01.059Z,98983.84
2017-11-21T10:09:35.227Z,98980.52
2017-11-21T10:12:09.600Z,98973.28
2017-11-21T10:14:44.039Z,98974.77
2017-11-21T10:17:18.408Z,98967.38
2017-11-21T10:19:52.936Z,98972.77
2017-11-21T10:22:27.376Z,98963.39
2017-11-21T10:25:01.748Z,98966.48
2017-11-21T10:27:36.244Z,98958.31
2017-11-21T10:30:10.602Z,98959.92
2017-11-21T10:32:45.100Z,98968.75
2017-11-21T10:35:19.497Z,98950.02
2017-11-21T10:37:53.916Z,98964.85
2017-11-21T10:40:28.289Z,98952.80
2017-11-21T10:43:02.882Z,98953.89
2017-11-21T10:45:37.304Z,98955.08
2017-11-21T10:48:11.774Z,98945.28
2017-11-21T10:50:46.415Z,98938.45
2017-11-21T10:53:20.900Z,98896.45
2017-11-21T10:55:55.311Z,98940.28
2017-11-21T10:58:29.244Z,98943.23
2017-11-21T11:01:03.299Z,98948.16
2017-11-21T11:03:37.401Z,98937.45
2017-11-21T11:06:11.613Z,98940.67
2017-11-21T11:08:45.846Z,98945.22
2017-11-21T11:11:20.403Z,98938.01
2017-11-21T11:13:54.991Z,98934.27
2017-11-21T11:16:29.018Z,98936.53
2017-11-21T11:19:03.262Z,98932.92
2017-11-21T11:21:37.325Z,98924.59
2017-11-21T11:24:11.547Z,98920.60
2017-11-21T11:26:45.946Z,98916.56
2017-11-21T11:29:20.124Z,98925.09
2017-11-21T11:31:54.708Z,98919.84
2017-11-21T11:34:28.873Z,98914.56
2017-11-21T11:37:02.915Z,98919.14
2017-11-21T11:39:37.047Z,98907.83
2017-11-21T11:42:11.087Z,98912.45
2017-11-21T11:44:45.295Z,98897.48
2017-11-21T11:47:19.336Z,98861.49
2017-11-21T11:49:53.783Z,98909.63
2017-11-21T11:52:28.000Z,98895.42
2017-11-21T11:55:02.644Z,98907.76
2017-11-21T11:57:40.643Z,98905.31
2017-11-21T12:00:14.740Z,98905.44
2017-11-21T12:02:49.293Z,98913.24
2017-11-21T12:05:23.441Z,98916.33
2017-11-21T12:07:57.586Z,98901.80
2017-11-21T12:10:31.708Z,98895.44
2017-11-21T12:13:06.195Z,98909.91
2017-11-21T12:15:40.695Z,98902.48
2017-11-21T12:18:15.726Z,98875.39
2017-11-21T12:20:51.579Z,98889.41
2017-11-21T12:23:25.734Z,98880.13
2017-11-21T12:25:59.770Z,98895.47
2017-11-21T12:28:33.947Z,98890.98
2017-11-21T12:31:08.007Z,98893.84
2017-11-21T12:33:42.239Z,98883.19
2017-11-21T12:36:16.256Z,98895.78
2017-11-21T12:38:52.999Z,98899.13
2017-11-21T12:41:27.629Z,98885.45
2017-11-21T12:44:02.687Z,98886.52
2017-11-21T12:46:38.583Z,98918.34
2017-11-21T12:49:12.744Z,98896.58
2017-11-21T12:51:46.984Z,98894.44
2017-11-21T12:54:21.160Z,98893.43
2017-11-21T12:56:55.303Z,98872.37
2017-11-21T12:59:29.538Z,98890.73
2017-11-21T13:02:03.704Z,98879.08
2017-11-21T13:04:37.923Z,98887.55
2017-11-21T13:07:12.088Z,98896.37
2017-11-21T13:09:46.944Z,98896.41
2017-11-21T13:12:21.205Z,98901.55
2017-11-21T13:14:55.392Z,98897.61
2017-11-21T13:17:29.663Z,98898.70
2017-11-21T13:20:04.379Z,98905.58
2017-11-21T13:22:42.647Z,98888.42
2017-11-21T13:25:16.744Z,98885.95
2017-11-21T13:27:51.084Z,98903.05
2017-11-21T13:30:25.179Z,98899.00
2017-11-21T13:32:59.358Z,98897.64
2017-11-21T13:35:33.497Z,98909.83
2017-11-21T13:38:07.738Z,98912.39
2017-11-21T13:40:42.266Z,98909.78
2017-11-21T13:43:16.416Z,98910.92
2017-11-21T13:45:50.697Z,98899.16
2017-11-21T13:48:25.663Z,98910.62
2017-11-21T13:50:59.860Z,98915.58
2017-11-21T13:53:34.049Z,98912.67
2017-11-21T13:56:08.957Z,98902.42
2017-11-21T13:58:43.017Z,98916.55
2017-11-21T14:01:17.449Z,98926.74
2017-11-21T14:03:51.775Z,98919.38
2017-11-21T14:06:25.885Z,98915.53
2017-11-21T14:08:59.711Z,98937.27
2017-11-21T14:11:33.780Z,98920.77
2017-11-21T14:14:08.316Z,98908.41
2017-11-21T14:16:42.527Z,98940.85
2017-11-21T14:19:16.715Z,98934.66
2017-11-21T14:21:51.162Z,98944.59
2017-11-21T14:24:25.534Z,98916.45
2017-11-21T14:26:59.611Z,98935.95
2017-11-21T14:29:33.808Z,98936.19
2017-11-21T14:32:07.836Z,98938.19
2017-11-21T14:34:41.979Z,98930.90
2017-11-21T14:37:16.558Z,98938.69
2017-11-21T14:39:50.834Z,98935.88
2017-11-21T14:42:25.019Z,98923.25
2017-11-21T14:44:59.106Z,98932.47
2017-11-21T14:47:33.115Z,98935.84
2017-11-21T14:50:11.575Z,98919.59
2017-11-21T14:52:46.159Z,98920.41
2017-11-21T14:55:20.292Z,98922.66
2017-11-21T14:57:55.143Z,98930.33
2017-11-21T15:00:29.440Z,98931.52
2017-11-21T15:03:03.715Z,98910.67
2017-11-21T15:05:38.101Z,98924.25
2017-11-21T15:08:12.571Z,98926.63
2017-11-21T15:10:47.120Z,98915.34
2017-11-21T15:13:21.159Z,98910.67
2017-11-21T15:15:55.539Z,98915.64
2017-11-21T15:18:30.117Z,98921.14
2017-11-21T15:21:04.599Z,98916.17
2017-11-21T15:23:38.711Z,98915.00
2017-11-21T15:26:12.800Z,98908.23
2017-11-21T15:28:47.404Z,98904.88
2017-11-21T15:31:21.680Z,98912.63
2017-11-21T15:33:56.267Z,98913.41
2017-11-21T15:36:30.687Z,98911.52
2017-11-21T15:39:05.389Z,98917.05
2017-11-21T15:41:39.891Z,98918.63
2017-11-21T15:44:14.443Z,98919.55
2017-11-21T15:46:49.603Z,98931.27
2017-11-21T15:49:24.106Z,98918.20
2017-11-21T15:51:58.531Z,98913.88
2017-11-21T15:54:33.148Z,98901.43
2017-11-21T15:57:07.193Z,98904.89
2017-11-21T15:59:41.682Z,98897.53
2017-11-21T16:02:16.074Z,98913.19
2017-11-21T16:04:50.559Z,98916.75
2017-11-21T16:07:25.691Z,98908.05
2017-11-21T16:10:00.308Z,98909.92
2017-11-21T16:12:34.723Z,98912.99
2017-11-21T16:15:09.449Z,98933.52
2017-11-21T16:17:44.001Z,98900.78
2017-11-21T16:20:18.027Z,98903.23
2017-11-21T16:22:52.503Z,98907.94
2017-11-21T16:25:27.422Z,98898.84
2017-11-21T16:28:01.795Z,98908.91
2017-11-21T16:30:36.223Z,98901.69
2017-11-21T16:33:10.836Z,98921.77
2017-11-21T16:35:45.189Z,98915.88
2017-11-21T16:38:19.570Z,98914.56
2017-11-21T16:40:53.917Z,98929.54
2017-11-21T16:43:28.395Z,98915.91
2017-11-21T16:46:02.774Z,98911.37
2017-11-21T16:48:37.380Z,98917.63
2017-11-21T16:51:11.847Z,98922.59
2017-11-21T16:53:46.688Z,98925.85
2017-11-21T16:56:21.291Z,98914.45
2017-11-21T16:58:56.410Z,98910.51
2017-11-21T17:01:31.052Z,98915.73
2017-11-21T17:04:05.586Z,98920.39
2017-11-21T17:06:40.515Z,98926.57
2017-11-21T17:09:15.889Z,98916.13
2017-11-21T17:11:50.516Z,98926.03
2017-11-21T17:14:26.576Z,98928.89
2017-11-21T17:17:01.048Z,98918.70
2017-11-21T17:19:35.549Z,98931.27
2017-11-21T17:22:10.050Z,98929.99
2017-11-21T17:24:44.423Z,98935.33
2017-11-21T17:27:18.705Z,98933.59
2017-11-21T17:29:53.280Z,98925.52
2017-11-21T17:32:27.674Z,98918.09
2017-11-21T17:35:02.536Z,98930.41
2017-11-21T17:37:37.115Z,98926.25
2017-11-21T17:40:11.567Z,98936.56
2017-11-21T17:42:46.762Z,98918.38
2017-11-21T17:45:21.151Z,98937.27
2017-11-21T17:47:55.703Z,98945.17
2017-11-21T17:50:31.211Z,98924.83
2017-11-21T17:53:06.217Z,98935.02
2017-11-21T17:55:40.706Z,98938.08
2017-11-21T17:58:15.072Z,98930.88
2017-11-21T18:00:49.455Z,98927.00
2017-11-21T18:03:24.055Z,98923.78
2017-11-21T18:05:58.508Z,98927.96
2017-11-21T18:08:32.952Z,98929.12
2017-11-21T18:11:07.360Z,98942.37
2017-11-21T18:13:41.908Z,98939.58
2017-11-21T18:16:16.379Z,98939.31
2017-11-21T18:18:50.812Z,98938.46
2017-11-21T18:21:25.176Z,98945.89
2017-11-21T18:23:59.775Z,98943.49
2017-11-21T18:26:34.224Z,98950.61
2017-11-21T18:29:08.895Z,98933.54
2017-11-21T18:31:43.349Z,98934.42
2017-11-21T18:34:17.731Z,98940.66
2017-11-21T18:36:52.127Z,98939.72
2017-11-21T18:39:26.540Z,98939.88
2017-11-21T18:42:00.932Z,98941.89
2017-11-21T18:44:35.418Z,98940.70
2017-11-21T18:47:11.039Z,98954.37
2017-11-21T18:49:45.566Z,98932.05
2017-11-21T18:52:19.953Z,98932.45
2017-11-21T18:54:54.454Z,98905.93
2017-11-21T18:57:28.922Z,98934.33
2017-11-21T19:00:03.309Z,98953.90
2017-11-21T19:02:37.797Z,98937.66
2017-11-21T19:05:12.195Z,98932.16
2017-11-21T19:07:46.613Z,98944.64
2017-11-21T19:10:21.357Z,98942.23
2017-11-21T19:12:55.644Z,98954.28
2017-11-21T19:15:30.140Z,98941.11
2017-11-21T19:18:04.694Z,98942.77
2017-11-21T19:20:39.207Z,98948.58
2017-11-21T19:23:13.586Z,98952.47
2017-11-21T19:25:49.207Z,98936.00
2017-11-21T19:28:26.192Z,98944.04
2017-11-21T19:31:00.544Z,98946.42
2017-11-21T19:33:35.028Z,98946.85
2017-11-21T19:36:10.371Z,98949.48
2017-11-21T19:38:45.289Z,98935.13
2017-11-21T19:41:19.503Z,98942.22
2017-11-21T19:43:53.828Z,98948.89
2017-11-21T19:46:28.202Z,98938.28
2017-11-21T19:49:02.872Z,98953.43
2017-11-21T19:51:37.413Z,98953.11
2017-11-21T19:54:11.924Z,98953.41
2017-11-21T19:56:46.370Z,98947.47
2017-11-21T19:59:20.997Z,98951.39
2017-11-21T20:01:55.458Z,98957.20
2017-11-21T20:04:29.945Z,98948.95
2017-11-21T20:07:04.376Z,98947.02
2017-11-21T20:09:38.938Z,98941.34
2017-11-21T20:12:13.340Z,98940.85
2017-11-21T20:14:47.804Z,98952.16
2017-11-21T20:17:22.237Z,98936.48
2017-11-21T20:19:56.717Z,98930.95
2017-11-21T20:22:31.216Z,98932.72
2017-11-21T20:25:10.042Z,98932.83
2017-11-21T20:27:44.488Z,98932.72
2017-11-21T20:30:19.284Z,98939.38
2017-11-21T20:32:53.806Z,98932.06
2017-11-21T20:35:28.187Z,98934.31
2017-11-21T20:38:02.691Z,98921.79
2017-11-21T20:40:37.228Z,98929.02
2017-11-21T20:43:11.733Z,98916.25
2017-11-21T20:45:46.151Z,98923.47
2017-11-21T20:48:20.525Z,98928.74
2017-11-21T20:50:55.616Z,98926.19
2017-11-21T20:53:30.091Z,98926.33
2017-11-21T20:56:04.586Z,98930.48
2017-11-21T20:58:39.131Z,98923.20
2017-11-21T21:01:14.556Z,98923.53
2017-11-21T21:03:48.786Z,98934.09
2017-11-21T21:06:23.142Z,98929.81
2017-11-21T21:08:57.652Z,98887.30
2017-11-21T21:11:31.998Z,98937.84
2017-11-21T21:14:06.519Z,98944.84
2017-11-21T21:16:40.962Z,98943.96
2017-11-21T21:19:15.468Z,98937.88
2017-11-21T21:21:49.943Z,98943.88
2017-11-21T21:24:24.461Z,98940.66
2017-11-21T21:26:58.852Z,98940.31
2017-11-21T21:29:33.371Z,98945.64
2017-11-21T21:32:07.838Z,98952.17
2017-11-21T21:34:42.379Z,98932.55
2017-11-21T21:37:17.156Z,98948.25
2017-11-21T21:39:51.515Z,98947.42
2017-11-21T21:42:25.951Z,98951.72
2017-11-21T21:45:00.419Z,98951.45
2017-11-21T21:47:34.791Z,98952.04
2017-11-21T21:50:09.189Z,98953.38
2017-11-21T21:52:44.393Z,98953.17
2017-11-21T21:55:19.329Z,98945.41
2017-11-21T21:57:53.975Z,98930.66
2017-11-21T22:00:28.443Z,98948.98
2017-11-21T22:03:03.061Z,98939.17
2017-11-21T22:05:37.821Z,98940.44
2017-11-21T22:08:12.283Z,98943.09
2017-11-21T22:10:48.060Z,98946.88
2017-11-21T22:13:22.483Z,98952.95
2017-11-21T22:15:56.932Z,98953.97
2017-11-21T22:18:31.372Z,98949.30
2017-11-21T22:21:06.371Z,98956.23
2017-11-21T22:23:40.850Z,98955.18
2017-11-21T22:26:15.243Z,98951.80
2017-11-21T22:28:49.766Z,98956.64
2017-11-21T22:31:24.822Z,98949.35
2017-11-21T22:33:59.175Z,98956.69
2017-11-21T22:36:33.565Z,98947.52
2017-11-21T22:39:08.095Z,98949.78
2017-11-21T22:41:42.801Z,98944.57
2017-11-21T22:44:17.410Z,98945.61
2017-11-21T22:46:51.784Z,98939.60
2017-11-21T22:49:26.363Z,98928.94
2017-11-21T22:52:00.870Z,98933.39
2017-11-21T22:54:35.414Z,98927.72
2017-11-21T22:57:09.952Z,98939.01
2017-11-21T22:59:44.475Z,98927.83
2017-11-21T23:02:18.862Z,98923.23
2017-11-21T23:04:53.108Z,98917.72
2017-11-21T23:07:29.707Z,98928.84
2017-11-21T23:10:08.335Z,98926.52
2017-11-21T23:12:43.712Z,98914.94
2017-11-21T23:15:18.195Z,98922.83
2017-11-21T23:17:52.546Z,98924.34
2017-11-21T23:20:26.994Z,98921.35
2017-11-21T23:23:01.567Z,98911.75
2017-11-21T23:25:36.623Z,98906.23
2017-11-21T23:28:11.435Z,98905.89
2017-11-21T23:30:46.802Z,98910.77
2017-11-21T23:33:21.408Z,98912.25
2017-11-21T23:35:55.892Z,98912.72
2017-11-21T23:38:30.278Z,98913.66
2017-11-21T23:41:04.862Z,98916.58
2017-11-21T23:43:39.408Z,98915.64
2017-11-21T23:46:13.897Z,98914.23
2017-11-21T23:48:48.898Z,98917.45
2017-11-21T23:51:24.236Z,98920.17
2017-11-21T23:53:58.857Z,98923.94
2017-11-21T23:56:33.472Z,98901.77
2017-11-21T23:59:08.066Z,98913.39
